sensor_id;sensor_type;location;lat;lon;timestamp;P1;durP1;ratioP1;P2;durP2;ratioP2
71769;SDS011;59605;52.122;5.420;2022-08-21T00:01:32;1.88;;;0.70;;
71769;SDS011;59605;52.122;5.420;2022-08-21T00:04:03;1.55;;;0.75;;
71769;SDS011;59605;52.122;5.420;2022-08-21T00:06:30;1.77;;;0.90;;
71769;SDS011;59605;52.122;5.420;2022-08-21T00:08:57;0.97;;;0.60;;
71769;SDS011;59605;52.122;5.420;2022-08-21T00:11:29;1.85;;;0.75;;
71769;SDS011;59605;52.122;5.420;2022-08-21T00:13:55;4.65;;;1.50;;
71769;SDS011;59605;52.122;5.420;2022-08-21T00:16:22;1.30;;;0.90;;
71769;SDS011;59605;52.122;5.420;2022-08-21T00:18:49;2.80;;;0.68;;
71769;SDS011;59605;52.122;5.420;2022-08-21T00:21:16;2.80;;;0.80;;
71769;SDS011;59605;52.122;5.420;2022-08-21T00:23:42;2.97;;;0.88;;
71769;SDS011;59605;52.122;5.420;2022-08-21T00:26:09;2.05;;;0.80;;
71769;SDS011;59605;52.122;5.420;2022-08-21T00:28:35;2.22;;;0.90;;
71769;SDS011;59605;52.122;5.420;2022-08-21T00:31:02;1.20;;;0.70;;
71769;SDS011;59605;52.122;5.420;2022-08-21T00:33:30;1.33;;;0.70;;
71769;SDS011;59605;52.122;5.420;2022-08-21T00:35:57;2.55;;;1.00;;
71769;SDS011;59605;52.122;5.420;2022-08-21T00:38:24;1.17;;;0.77;;
71769;SDS011;59605;52.122;5.420;2022-08-21T00:40:52;0.60;;;0.50;;
71769;SDS011;59605;52.122;5.420;2022-08-21T00:43:22;0.82;;;0.60;;
71769;SDS011;59605;52.122;5.420;2022-08-21T00:45:53;2.30;;;0.80;;
71769;SDS011;59605;52.122;5.420;2022-08-21T00:48:21;0.90;;;0.70;;
71769;SDS011;59605;52.122;5.420;2022-08-21T00:50:56;1.95;;;0.70;;
71769;SDS011;59605;52.122;5.420;2022-08-21T00:53:25;1.15;;;0.65;;
71769;SDS011;59605;52.122;5.420;2022-08-21T00:55:53;3.00;;;0.70;;
71769;SDS011;59605;52.122;5.420;2022-08-21T00:58:22;2.50;;;0.67;;
71769;SDS011;59605;52.122;5.420;2022-08-21T01:00:50;0.98;;;0.80;;
71769;SDS011;59605;52.122;5.420;2022-08-21T01:03:19;1.95;;;0.90;;
71769;SDS011;59605;52.122;5.420;2022-08-21T01:05:49;0.98;;;0.60;;
71769;SDS011;59605;52.122;5.420;2022-08-21T01:08:16;1.10;;;0.70;;
71769;SDS011;59605;52.122;5.420;2022-08-21T01:10:44;2.57;;;0.70;;
71769;SDS011;59605;52.122;5.420;2022-08-21T01:13:17;2.15;;;0.63;;
71769;SDS011;59605;52.122;5.420;2022-08-21T01:15:46;1.50;;;0.80;;
71769;SDS011;59605;52.122;5.420;2022-08-21T01:18:15;1.17;;;0.68;;
71769;SDS011;59605;52.122;5.420;2022-08-21T01:23:26;2.40;;;0.80;;
71769;SDS011;59605;52.122;5.420;2022-08-21T01:25:53;1.88;;;0.70;;
71769;SDS011;59605;52.122;5.420;2022-08-21T01:28:20;0.85;;;0.60;;
71769;SDS011;59605;52.122;5.420;2022-08-21T01:30:48;1.70;;;0.75;;
71769;SDS011;59605;52.122;5.420;2022-08-21T01:33:18;1.55;;;0.60;;
71769;SDS011;59605;52.122;5.420;2022-08-21T01:35:47;1.50;;;0.63;;
71769;SDS011;59605;52.122;5.420;2022-08-21T01:38:14;1.20;;;0.70;;
71769;SDS011;59605;52.122;5.420;2022-08-21T01:40:41;1.63;;;0.70;;
71769;SDS011;59605;52.122;5.420;2022-08-21T01:43:07;1.00;;;0.60;;
71769;SDS011;59605;52.122;5.420;2022-08-21T01:45:33;2.13;;;0.95;;
71769;SDS011;59605;52.122;5.420;2022-08-21T01:48:00;1.27;;;0.80;;
71769;SDS011;59605;52.122;5.420;2022-08-21T01:50:26;0.98;;;0.68;;
71769;SDS011;59605;52.122;5.420;2022-08-21T01:52:53;1.48;;;0.65;;
71769;SDS011;59605;52.122;5.420;2022-08-21T01:55:20;1.80;;;0.50;;
71769;SDS011;59605;52.122;5.420;2022-08-21T01:57:47;2.55;;;0.70;;
71769;SDS011;59605;52.122;5.420;2022-08-21T02:00:15;0.80;;;0.50;;
71769;SDS011;59605;52.122;5.420;2022-08-21T02:02:45;1.17;;;0.57;;
71769;SDS011;59605;52.122;5.420;2022-08-21T02:05:12;1.38;;;0.70;;
71769;SDS011;59605;52.122;5.420;2022-08-21T02:07:42;1.40;;;0.50;;
71769;SDS011;59605;52.122;5.420;2022-08-21T02:10:12;0.93;;;0.73;;
71769;SDS011;59605;52.122;5.420;2022-08-21T02:12:41;1.47;;;0.63;;
71769;SDS011;59605;52.122;5.420;2022-08-21T02:15:08;2.15;;;0.70;;
71769;SDS011;59605;52.122;5.420;2022-08-21T02:17:56;1.55;;;0.60;;
71769;SDS011;59605;52.122;5.420;2022-08-21T02:20:26;0.90;;;0.65;;
71769;SDS011;59605;52.122;5.420;2022-08-21T02:22:55;1.33;;;0.70;;
71769;SDS011;59605;52.122;5.420;2022-08-21T02:25:23;1.10;;;0.90;;
71769;SDS011;59605;52.122;5.420;2022-08-21T02:27:51;1.02;;;0.70;;
71769;SDS011;59605;52.122;5.420;2022-08-21T02:30:20;0.77;;;0.60;;
71769;SDS011;59605;52.122;5.420;2022-08-21T02:32:49;1.10;;;0.70;;
71769;SDS011;59605;52.122;5.420;2022-08-21T02:35:16;1.25;;;0.60;;
71769;SDS011;59605;52.122;5.420;2022-08-21T02:37:47;1.73;;;0.80;;
71769;SDS011;59605;52.122;5.420;2022-08-21T02:40:16;2.20;;;0.93;;
71769;SDS011;59605;52.122;5.420;2022-08-21T02:42:44;2.05;;;0.73;;
71769;SDS011;59605;52.122;5.420;2022-08-21T02:45:11;1.10;;;0.68;;
71769;SDS011;59605;52.122;5.420;2022-08-21T02:47:40;1.42;;;0.60;;
71769;SDS011;59605;52.122;5.420;2022-08-21T02:50:13;1.53;;;1.13;;
71769;SDS011;59605;52.122;5.420;2022-08-21T02:52:39;0.82;;;0.70;;
71769;SDS011;59605;52.122;5.420;2022-08-21T02:55:06;1.30;;;0.73;;
71769;SDS011;59605;52.122;5.420;2022-08-21T02:57:32;1.25;;;0.70;;
71769;SDS011;59605;52.122;5.420;2022-08-21T02:59:59;2.58;;;0.73;;
71769;SDS011;59605;52.122;5.420;2022-08-21T03:02:25;1.10;;;0.67;;
71769;SDS011;59605;52.122;5.420;2022-08-21T03:04:52;0.93;;;0.65;;
71769;SDS011;59605;52.122;5.420;2022-08-21T03:07:18;1.33;;;0.60;;
71769;SDS011;59605;52.122;5.420;2022-08-21T03:09:44;1.63;;;0.77;;
71769;SDS011;59605;52.122;5.420;2022-08-21T03:12:21;1.75;;;0.60;;
71769;SDS011;59605;52.122;5.420;2022-08-21T03:14:47;1.00;;;0.70;;
71769;SDS011;59605;52.122;5.420;2022-08-21T03:17:13;0.90;;;0.60;;
71769;SDS011;59605;52.122;5.420;2022-08-21T03:19:40;1.05;;;0.77;;
71769;SDS011;59605;52.122;5.420;2022-08-21T03:22:06;0.80;;;0.65;;
71769;SDS011;59605;52.122;5.420;2022-08-21T03:24:33;2.75;;;0.90;;
71769;SDS011;59605;52.122;5.420;2022-08-21T03:27:00;1.17;;;0.73;;
71769;SDS011;59605;52.122;5.420;2022-08-21T03:29:34;0.95;;;0.60;;
71769;SDS011;59605;52.122;5.420;2022-08-21T03:32:00;1.13;;;0.60;;
71769;SDS011;59605;52.122;5.420;2022-08-21T03:34:27;1.02;;;0.60;;
71769;SDS011;59605;52.122;5.420;2022-08-21T03:36:53;1.42;;;0.70;;
71769;SDS011;59605;52.122;5.420;2022-08-21T03:39:20;1.67;;;0.90;;
71769;SDS011;59605;52.122;5.420;2022-08-21T03:41:46;1.45;;;0.98;;
71769;SDS011;59605;52.122;5.420;2022-08-21T03:44:13;0.88;;;0.60;;
71769;SDS011;59605;52.122;5.420;2022-08-21T03:46:39;1.13;;;0.70;;
71769;SDS011;59605;52.122;5.420;2022-08-21T03:49:06;1.30;;;0.70;;
71769;SDS011;59605;52.122;5.420;2022-08-21T03:51:33;1.00;;;0.73;;
71769;SDS011;59605;52.122;5.420;2022-08-21T03:53:59;1.75;;;0.60;;
71769;SDS011;59605;52.122;5.420;2022-08-21T03:56:26;1.35;;;0.70;;
71769;SDS011;59605;52.122;5.420;2022-08-21T03:58:52;1.27;;;0.85;;
71769;SDS011;59605;52.122;5.420;2022-08-21T04:01:18;2.03;;;0.80;;
71769;SDS011;59605;52.122;5.420;2022-08-21T04:03:45;3.20;;;0.87;;
71769;SDS011;59605;52.122;5.420;2022-08-21T04:06:11;1.90;;;0.85;;
71769;SDS011;59605;52.122;5.420;2022-08-21T04:08:38;1.23;;;0.80;;
71769;SDS011;59605;52.122;5.420;2022-08-21T04:11:04;2.10;;;1.08;;
71769;SDS011;59605;52.122;5.420;2022-08-21T04:13:31;1.25;;;0.80;;
71769;SDS011;59605;52.122;5.420;2022-08-21T04:15:58;1.30;;;0.87;;
71769;SDS011;59605;52.122;5.420;2022-08-21T04:18:24;3.30;;;0.90;;
71769;SDS011;59605;52.122;5.420;2022-08-21T04:20:51;1.35;;;0.70;;
71769;SDS011;59605;52.122;5.420;2022-08-21T04:23:19;3.22;;;0.80;;
71769;SDS011;59605;52.122;5.420;2022-08-21T04:25:50;1.63;;;0.98;;
71769;SDS011;59605;52.122;5.420;2022-08-21T04:28:18;1.57;;;0.90;;
71769;SDS011;59605;52.122;5.420;2022-08-21T04:30:45;2.08;;;0.90;;
71769;SDS011;59605;52.122;5.420;2022-08-21T04:33:12;2.58;;;1.45;;
71769;SDS011;59605;52.122;5.420;2022-08-21T04:35:38;2.47;;;1.20;;
71769;SDS011;59605;52.122;5.420;2022-08-21T04:38:05;2.35;;;1.13;;
71769;SDS011;59605;52.122;5.420;2022-08-21T04:40:32;2.27;;;1.10;;
71769;SDS011;59605;52.122;5.420;2022-08-21T04:43:01;1.65;;;1.08;;
71769;SDS011;59605;52.122;5.420;2022-08-21T04:45:35;2.75;;;1.10;;
71769;SDS011;59605;52.122;5.420;2022-08-21T04:48:04;2.03;;;1.25;;
71769;SDS011;59605;52.122;5.420;2022-08-21T04:50:43;2.40;;;1.08;;
71769;SDS011;59605;52.122;5.420;2022-08-21T04:53:22;1.70;;;1.00;;
71769;SDS011;59605;52.122;5.420;2022-08-21T04:55:49;2.42;;;1.30;;
71769;SDS011;59605;52.122;5.420;2022-08-21T04:58:18;1.48;;;1.15;;
71769;SDS011;59605;52.122;5.420;2022-08-21T05:00:47;1.42;;;1.20;;
71769;SDS011;59605;52.122;5.420;2022-08-21T05:03:14;1.48;;;1.00;;
71769;SDS011;59605;52.122;5.420;2022-08-21T05:05:42;3.80;;;1.50;;
71769;SDS011;59605;52.122;5.420;2022-08-21T05:08:09;3.35;;;1.80;;
71769;SDS011;59605;52.122;5.420;2022-08-21T05:10:40;4.97;;;2.55;;
71769;SDS011;59605;52.122;5.420;2022-08-21T05:13:08;3.50;;;2.15;;
71769;SDS011;59605;52.122;5.420;2022-08-21T05:15:34;4.07;;;2.40;;
71769;SDS011;59605;52.122;5.420;2022-08-21T05:18:01;3.00;;;2.17;;
71769;SDS011;59605;52.122;5.420;2022-08-21T05:20:27;3.30;;;2.53;;
71769;SDS011;59605;52.122;5.420;2022-08-21T05:22:54;4.90;;;2.55;;
71769;SDS011;59605;52.122;5.420;2022-08-21T05:25:21;4.20;;;2.40;;
71769;SDS011;59605;52.122;5.420;2022-08-21T05:27:49;5.15;;;2.35;;
71769;SDS011;59605;52.122;5.420;2022-08-21T05:30:17;3.97;;;2.40;;
71769;SDS011;59605;52.122;5.420;2022-08-21T05:32:45;3.78;;;2.40;;
71769;SDS011;59605;52.122;5.420;2022-08-21T05:35:12;5.78;;;2.75;;
71769;SDS011;59605;52.122;5.420;2022-08-21T05:37:39;5.75;;;2.35;;
71769;SDS011;59605;52.122;5.420;2022-08-21T05:40:06;3.67;;;2.15;;
71769;SDS011;59605;52.122;5.420;2022-08-21T05:42:49;4.07;;;2.77;;
71769;SDS011;59605;52.122;5.420;2022-08-21T05:45:21;5.20;;;2.53;;
71769;SDS011;59605;52.122;5.420;2022-08-21T05:48:09;4.70;;;2.38;;
71769;SDS011;59605;52.122;5.420;2022-08-21T05:50:39;4.95;;;2.30;;
71769;SDS011;59605;52.122;5.420;2022-08-21T05:53:07;4.22;;;2.05;;
71769;SDS011;59605;52.122;5.420;2022-08-21T05:55:36;5.03;;;2.50;;
71769;SDS011;59605;52.122;5.420;2022-08-21T05:58:10;3.95;;;2.17;;
71769;SDS011;59605;52.122;5.420;2022-08-21T06:00:37;6.90;;;2.90;;
71769;SDS011;59605;52.122;5.420;2022-08-21T06:03:04;4.07;;;2.42;;
71769;SDS011;59605;52.122;5.420;2022-08-21T06:05:30;5.38;;;2.47;;
71769;SDS011;59605;52.122;5.420;2022-08-21T06:08:02;5.27;;;2.33;;
71769;SDS011;59605;52.122;5.420;2022-08-21T06:10:29;6.10;;;3.10;;
71769;SDS011;59605;52.122;5.420;2022-08-21T06:12:55;3.13;;;1.83;;
71769;SDS011;59605;52.122;5.420;2022-08-21T06:15:22;5.50;;;1.85;;
71769;SDS011;59605;52.122;5.420;2022-08-21T06:17:49;3.38;;;1.48;;
71769;SDS011;59605;52.122;5.420;2022-08-21T06:20:15;3.90;;;1.70;;
71769;SDS011;59605;52.122;5.420;2022-08-21T06:22:41;4.97;;;1.77;;
71769;SDS011;59605;52.122;5.420;2022-08-21T06:25:08;4.55;;;2.47;;
71769;SDS011;59605;52.122;5.420;2022-08-21T06:27:35;4.20;;;1.85;;
71769;SDS011;59605;52.122;5.420;2022-08-21T06:30:03;3.10;;;1.90;;
71769;SDS011;59605;52.122;5.420;2022-08-21T06:32:31;3.30;;;1.90;;
71769;SDS011;59605;52.122;5.420;2022-08-21T06:34:58;3.83;;;1.45;;
71769;SDS011;59605;52.122;5.420;2022-08-21T06:37:24;3.58;;;1.27;;
71769;SDS011;59605;52.122;5.420;2022-08-21T06:39:51;3.53;;;1.48;;
71769;SDS011;59605;52.122;5.420;2022-08-21T06:42:17;2.63;;;1.20;;
71769;SDS011;59605;52.122;5.420;2022-08-21T06:44:44;3.23;;;1.27;;
71769;SDS011;59605;52.122;5.420;2022-08-21T06:47:11;2.75;;;1.27;;
71769;SDS011;59605;52.122;5.420;2022-08-21T06:49:38;4.53;;;1.55;;
71769;SDS011;59605;52.122;5.420;2022-08-21T06:52:08;2.97;;;1.35;;
71769;SDS011;59605;52.122;5.420;2022-08-21T06:54:36;1.83;;;0.98;;
71769;SDS011;59605;52.122;5.420;2022-08-21T06:57:03;3.10;;;1.10;;
71769;SDS011;59605;52.122;5.420;2022-08-21T06:59:30;2.90;;;1.15;;
71769;SDS011;59605;52.122;5.420;2022-08-21T07:01:58;5.53;;;2.33;;
71769;SDS011;59605;52.122;5.420;2022-08-21T07:04:25;6.13;;;1.15;;
71769;SDS011;59605;52.122;5.420;2022-08-21T07:06:52;3.75;;;1.83;;
71769;SDS011;59605;52.122;5.420;2022-08-21T07:09:18;4.20;;;1.30;;
71769;SDS011;59605;52.122;5.420;2022-08-21T07:11:50;5.57;;;1.00;;
71769;SDS011;59605;52.122;5.420;2022-08-21T07:14:19;2.92;;;0.80;;
71769;SDS011;59605;52.122;5.420;2022-08-21T07:16:46;4.78;;;1.20;;
71769;SDS011;59605;52.122;5.420;2022-08-21T07:19:13;2.47;;;1.08;;
71769;SDS011;59605;52.122;5.420;2022-08-21T07:21:39;5.40;;;1.00;;
71769;SDS011;59605;52.122;5.420;2022-08-21T07:24:06;3.00;;;0.88;;
71769;SDS011;59605;52.122;5.420;2022-08-21T07:26:32;2.85;;;1.00;;
71769;SDS011;59605;52.122;5.420;2022-08-21T07:28:59;6.03;;;1.38;;
71769;SDS011;59605;52.122;5.420;2022-08-21T07:31:25;3.53;;;0.75;;
71769;SDS011;59605;52.122;5.420;2022-08-21T07:33:52;1.97;;;0.90;;
71769;SDS011;59605;52.122;5.420;2022-08-21T07:36:20;1.65;;;0.73;;
71769;SDS011;59605;52.122;5.420;2022-08-21T07:38:46;3.88;;;0.75;;
71769;SDS011;59605;52.122;5.420;2022-08-21T07:41:14;3.42;;;1.13;;
71769;SDS011;59605;52.122;5.420;2022-08-21T07:43:47;3.45;;;1.35;;
71769;SDS011;59605;52.122;5.420;2022-08-21T07:46:13;2.47;;;1.00;;
71769;SDS011;59605;52.122;5.420;2022-08-21T07:48:40;3.97;;;1.20;;
71769;SDS011;59605;52.122;5.420;2022-08-21T07:51:08;2.92;;;1.00;;
71769;SDS011;59605;52.122;5.420;2022-08-21T07:53:37;5.30;;;1.00;;
71769;SDS011;59605;52.122;5.420;2022-08-21T07:56:05;2.83;;;1.45;;
71769;SDS011;59605;52.122;5.420;2022-08-21T07:58:32;1.97;;;0.90;;
71769;SDS011;59605;52.122;5.420;2022-08-21T08:00:58;3.60;;;1.00;;
71769;SDS011;59605;52.122;5.420;2022-08-21T08:03:26;4.30;;;0.85;;
71769;SDS011;59605;52.122;5.420;2022-08-21T08:05:54;4.22;;;1.00;;
71769;SDS011;59605;52.122;5.420;2022-08-21T08:08:21;3.22;;;1.02;;
71769;SDS011;59605;52.122;5.420;2022-08-21T08:10:47;3.53;;;1.53;;
71769;SDS011;59605;52.122;5.420;2022-08-21T08:13:15;2.58;;;0.90;;
71769;SDS011;59605;52.122;5.420;2022-08-21T08:15:42;6.95;;;0.95;;
71769;SDS011;59605;52.122;5.420;2022-08-21T08:18:08;4.28;;;1.10;;
71769;SDS011;59605;52.122;5.420;2022-08-21T08:20:35;6.22;;;1.33;;
71769;SDS011;59605;52.122;5.420;2022-08-21T08:23:02;4.83;;;0.90;;
71769;SDS011;59605;52.122;5.420;2022-08-21T08:25:29;6.18;;;1.13;;
71769;SDS011;59605;52.122;5.420;2022-08-21T08:28:02;5.22;;;1.25;;
71769;SDS011;59605;52.122;5.420;2022-08-21T08:30:42;5.28;;;1.52;;
71769;SDS011;59605;52.122;5.420;2022-08-21T08:33:09;4.00;;;1.10;;
71769;SDS011;59605;52.122;5.420;2022-08-21T08:35:35;3.87;;;1.10;;
71769;SDS011;59605;52.122;5.420;2022-08-21T08:38:04;2.58;;;0.90;;
71769;SDS011;59605;52.122;5.420;2022-08-21T08:40:37;5.95;;;1.08;;
71769;SDS011;59605;52.122;5.420;2022-08-21T08:43:10;6.13;;;0.95;;
71769;SDS011;59605;52.122;5.420;2022-08-21T08:45:42;3.83;;;0.85;;
71769;SDS011;59605;52.122;5.420;2022-08-21T08:48:13;3.60;;;1.13;;
71769;SDS011;59605;52.122;5.420;2022-08-21T08:50:52;2.67;;;0.80;;
71769;SDS011;59605;52.122;5.420;2022-08-21T08:53:22;3.95;;;0.88;;
71769;SDS011;59605;52.122;5.420;2022-08-21T08:55:55;8.70;;;1.52;;
71769;SDS011;59605;52.122;5.420;2022-08-21T08:58:23;4.78;;;0.95;;
71769;SDS011;59605;52.122;5.420;2022-08-21T09:00:56;5.53;;;1.07;;
71769;SDS011;59605;52.122;5.420;2022-08-21T09:03:23;3.35;;;1.00;;
71769;SDS011;59605;52.122;5.420;2022-08-21T09:06:02;5.45;;;1.08;;
71769;SDS011;59605;52.122;5.420;2022-08-21T09:11:57;4.43;;;0.95;;
71769;SDS011;59605;52.122;5.420;2022-08-21T09:20:41;4.65;;;1.25;;
71769;SDS011;59605;52.122;5.420;2022-08-21T09:23:32;3.80;;;1.17;;
71769;SDS011;59605;52.122;5.420;2022-08-21T09:28:51;5.37;;;1.30;;
71769;SDS011;59605;52.122;5.420;2022-08-21T09:31:31;5.20;;;1.90;;
71769;SDS011;59605;52.122;5.420;2022-08-21T09:34:04;6.50;;;1.05;;
71769;SDS011;59605;52.122;5.420;2022-08-21T09:36:37;2.58;;;0.90;;
71769;SDS011;59605;52.122;5.420;2022-08-21T09:39:12;5.00;;;0.93;;
71769;SDS011;59605;52.122;5.420;2022-08-21T09:41:54;3.80;;;1.07;;
71769;SDS011;59605;52.122;5.420;2022-08-21T09:44:27;3.33;;;0.88;;
71769;SDS011;59605;52.122;5.420;2022-08-21T09:46:55;6.43;;;1.10;;
71769;SDS011;59605;52.122;5.420;2022-08-21T09:49:29;3.38;;;0.77;;
71769;SDS011;59605;52.122;5.420;2022-08-21T09:52:01;4.28;;;1.40;;
71769;SDS011;59605;52.122;5.420;2022-08-21T09:54:34;4.53;;;0.90;;
71769;SDS011;59605;52.122;5.420;2022-08-21T09:59:54;10.25;;;1.58;;
71769;SDS011;59605;52.122;5.420;2022-08-21T10:02:23;5.15;;;1.30;;
71769;SDS011;59605;52.122;5.420;2022-08-21T10:04:54;3.58;;;1.00;;
71769;SDS011;59605;52.122;5.420;2022-08-21T10:07:23;5.93;;;1.10;;
71769;SDS011;59605;52.122;5.420;2022-08-21T10:10:25;4.68;;;0.93;;
71769;SDS011;59605;52.122;5.420;2022-08-21T10:12:51;5.03;;;1.40;;
71769;SDS011;59605;52.122;5.420;2022-08-21T10:15:47;5.57;;;1.10;;
71769;SDS011;59605;52.122;5.420;2022-08-21T10:18:41;7.22;;;1.33;;
71769;SDS011;59605;52.122;5.420;2022-08-21T10:24:27;9.02;;;1.90;;
71769;SDS011;59605;52.122;5.420;2022-08-21T10:30:11;3.85;;;0.98;;
71769;SDS011;59605;52.122;5.420;2022-08-21T10:32:36;2.85;;;0.82;;
71769;SDS011;59605;52.122;5.420;2022-08-21T10:35:19;4.00;;;1.00;;
71769;SDS011;59605;52.122;5.420;2022-08-21T10:43:35;5.88;;;1.38;;
71769;SDS011;59605;52.122;5.420;2022-08-21T10:49:17;4.97;;;0.80;;
71769;SDS011;59605;52.122;5.420;2022-08-21T10:51:56;7.07;;;1.92;;
71769;SDS011;59605;52.122;5.420;2022-08-21T10:54:41;2.95;;;0.80;;
71769;SDS011;59605;52.122;5.420;2022-08-21T10:57:24;3.28;;;0.70;;
71769;SDS011;59605;52.122;5.420;2022-08-21T11:00:00;3.47;;;0.88;;
71769;SDS011;59605;52.122;5.420;2022-08-21T11:02:42;4.40;;;1.17;;
71769;SDS011;59605;52.122;5.420;2022-08-21T11:05:39;4.63;;;0.88;;
71769;SDS011;59605;52.122;5.420;2022-08-21T11:08:17;7.90;;;1.10;;
71769;SDS011;59605;52.122;5.420;2022-08-21T11:10:52;6.88;;;1.27;;
71769;SDS011;59605;52.122;5.420;2022-08-21T11:13:43;3.60;;;1.23;;
71769;SDS011;59605;52.122;5.420;2022-08-21T11:24:55;6.38;;;1.02;;
71769;SDS011;59605;52.122;5.420;2022-08-21T11:27:28;7.07;;;0.82;;
71769;SDS011;59605;52.122;5.420;2022-08-21T11:30:03;8.93;;;2.60;;
71769;SDS011;59605;52.122;5.420;2022-08-21T11:35:43;3.55;;;0.75;;
71769;SDS011;59605;52.122;5.420;2022-08-21T11:38:55;6.57;;;1.65;;
71769;SDS011;59605;52.122;5.420;2022-08-21T11:41:29;4.00;;;1.00;;
71769;SDS011;59605;52.122;5.420;2022-08-21T11:49:33;3.72;;;0.63;;
71769;SDS011;59605;52.122;5.420;2022-08-21T11:52:10;3.88;;;1.00;;
71769;SDS011;59605;52.122;5.420;2022-08-21T11:55:00;4.25;;;0.90;;
71769;SDS011;59605;52.122;5.420;2022-08-21T12:00:29;3.30;;;0.70;;
71769;SDS011;59605;52.122;5.420;2022-08-21T12:03:06;4.35;;;1.10;;
71769;SDS011;59605;52.122;5.420;2022-08-21T12:05:38;4.22;;;1.10;;
71769;SDS011;59605;52.122;5.420;2022-08-21T12:08:11;3.95;;;1.40;;
71769;SDS011;59605;52.122;5.420;2022-08-21T12:10:46;5.23;;;1.37;;
71769;SDS011;59605;52.122;5.420;2022-08-21T12:13:26;2.20;;;0.70;;
71769;SDS011;59605;52.122;5.420;2022-08-21T12:18:40;3.67;;;0.98;;
71769;SDS011;59605;52.122;5.420;2022-08-21T12:26:50;3.20;;;0.98;;
71769;SDS011;59605;52.122;5.420;2022-08-21T12:29:31;4.88;;;1.27;;
71769;SDS011;59605;52.122;5.420;2022-08-21T12:32:01;3.60;;;1.20;;
71769;SDS011;59605;52.122;5.420;2022-08-21T12:34:38;4.07;;;1.17;;
71769;SDS011;59605;52.122;5.420;2022-08-21T12:37:15;3.83;;;0.90;;
71769;SDS011;59605;52.122;5.420;2022-08-21T12:39:48;3.90;;;1.10;;
71769;SDS011;59605;52.122;5.420;2022-08-21T12:42:19;3.05;;;0.88;;
71769;SDS011;59605;52.122;5.420;2022-08-21T12:44:54;3.22;;;1.17;;
71769;SDS011;59605;52.122;5.420;2022-08-21T12:47:29;4.10;;;0.98;;
71769;SDS011;59605;52.122;5.420;2022-08-21T12:53:06;5.50;;;1.40;;
71769;SDS011;59605;52.122;5.420;2022-08-21T12:55:45;4.50;;;1.00;;
71769;SDS011;59605;52.122;5.420;2022-08-21T12:58:19;3.50;;;1.23;;
71769;SDS011;59605;52.122;5.420;2022-08-21T13:00:47;2.95;;;1.50;;
71769;SDS011;59605;52.122;5.420;2022-08-21T13:03:20;4.70;;;1.00;;
71769;SDS011;59605;52.122;5.420;2022-08-21T13:05:48;4.38;;;1.20;;
71769;SDS011;59605;52.122;5.420;2022-08-21T13:08:17;6.13;;;1.55;;
71769;SDS011;59605;52.122;5.420;2022-08-21T13:10:47;3.95;;;1.23;;
71769;SDS011;59605;52.122;5.420;2022-08-21T13:13:22;8.85;;;1.42;;
71769;SDS011;59605;52.122;5.420;2022-08-21T13:16:02;5.83;;;1.23;;
71769;SDS011;59605;52.122;5.420;2022-08-21T13:18:31;3.67;;;1.20;;
71769;SDS011;59605;52.122;5.420;2022-08-21T13:21:06;3.58;;;1.08;;
71769;SDS011;59605;52.122;5.420;2022-08-21T13:23:37;2.83;;;1.10;;
71769;SDS011;59605;52.122;5.420;2022-08-21T13:26:15;3.20;;;0.90;;
71769;SDS011;59605;52.122;5.420;2022-08-21T13:28:44;7.73;;;1.40;;
71769;SDS011;59605;52.122;5.420;2022-08-21T13:31:17;3.85;;;1.13;;
71769;SDS011;59605;52.122;5.420;2022-08-21T13:33:48;8.75;;;2.35;;
71769;SDS011;59605;52.122;5.420;2022-08-21T13:36:24;3.45;;;1.20;;
71769;SDS011;59605;52.122;5.420;2022-08-21T13:38:55;3.95;;;1.25;;
71769;SDS011;59605;52.122;5.420;2022-08-21T13:41:30;2.63;;;0.97;;
71769;SDS011;59605;52.122;5.420;2022-08-21T13:44:02;4.60;;;1.13;;
71769;SDS011;59605;52.122;5.420;2022-08-21T13:46:32;4.60;;;1.55;;
71769;SDS011;59605;52.122;5.420;2022-08-21T13:49:01;3.63;;;1.33;;
71769;SDS011;59605;52.122;5.420;2022-08-21T13:51:30;14.10;;;1.20;;
71769;SDS011;59605;52.122;5.420;2022-08-21T13:53:58;3.73;;;2.10;;
71769;SDS011;59605;52.122;5.420;2022-08-21T13:56:29;5.10;;;1.10;;
71769;SDS011;59605;52.122;5.420;2022-08-21T13:58:56;4.15;;;1.05;;
71769;SDS011;59605;52.122;5.420;2022-08-21T14:01:25;5.50;;;1.15;;
71769;SDS011;59605;52.122;5.420;2022-08-21T14:04:01;4.68;;;0.88;;
71769;SDS011;59605;52.122;5.420;2022-08-21T14:06:34;11.20;;;1.33;;
71769;SDS011;59605;52.122;5.420;2022-08-21T14:11:59;4.07;;;1.13;;
71769;SDS011;59605;52.122;5.420;2022-08-21T14:14:30;4.03;;;0.88;;
71769;SDS011;59605;52.122;5.420;2022-08-21T14:17:01;5.30;;;1.52;;
71769;SDS011;59605;52.122;5.420;2022-08-21T14:19:50;2.87;;;1.17;;
71769;SDS011;59605;52.122;5.420;2022-08-21T14:22:36;1.77;;;0.90;;
71769;SDS011;59605;52.122;5.420;2022-08-21T14:27:33;4.38;;;1.50;;
71769;SDS011;59605;52.122;5.420;2022-08-21T14:30:04;3.65;;;0.95;;
71769;SDS011;59605;52.122;5.420;2022-08-21T14:32:40;6.87;;;1.30;;
71769;SDS011;59605;52.122;5.420;2022-08-21T14:35:11;2.78;;;0.85;;
71769;SDS011;59605;52.122;5.420;2022-08-21T14:37:41;5.00;;;1.70;;
71769;SDS011;59605;52.122;5.420;2022-08-21T14:40:08;5.15;;;1.02;;
71769;SDS011;59605;52.122;5.420;2022-08-21T14:42:35;11.57;;;0.95;;
71769;SDS011;59605;52.122;5.420;2022-08-21T14:45:11;7.03;;;1.27;;
71769;SDS011;59605;52.122;5.420;2022-08-21T14:47:41;7.22;;;1.40;;
71769;SDS011;59605;52.122;5.420;2022-08-21T14:50:09;4.00;;;1.38;;
71769;SDS011;59605;52.122;5.420;2022-08-21T14:52:37;5.90;;;0.90;;
71769;SDS011;59605;52.122;5.420;2022-08-21T14:55:04;2.72;;;0.82;;
71769;SDS011;59605;52.122;5.420;2022-08-21T14:57:31;4.77;;;1.10;;
71769;SDS011;59605;52.122;5.420;2022-08-21T14:59:58;5.28;;;1.27;;
71769;SDS011;59605;52.122;5.420;2022-08-21T15:02:27;5.25;;;1.17;;
71769;SDS011;59605;52.122;5.420;2022-08-21T15:04:53;4.55;;;1.15;;
71769;SDS011;59605;52.122;5.420;2022-08-21T15:07:20;4.35;;;1.00;;
71769;SDS011;59605;52.122;5.420;2022-08-21T15:09:46;8.77;;;1.00;;
71769;SDS011;59605;52.122;5.420;2022-08-21T15:12:12;4.15;;;0.85;;
71769;SDS011;59605;52.122;5.420;2022-08-21T15:14:40;5.28;;;0.95;;
71769;SDS011;59605;52.122;5.420;2022-08-21T15:17:08;3.40;;;0.82;;
71769;SDS011;59605;52.122;5.420;2022-08-21T15:19:36;4.07;;;1.02;;
71769;SDS011;59605;52.122;5.420;2022-08-21T15:22:03;2.60;;;0.90;;
71769;SDS011;59605;52.122;5.420;2022-08-21T15:24:30;4.50;;;1.20;;
71769;SDS011;59605;52.122;5.420;2022-08-21T15:26:58;5.03;;;1.10;;
71769;SDS011;59605;52.122;5.420;2022-08-21T15:29:26;4.90;;;1.10;;
71769;SDS011;59605;52.122;5.420;2022-08-21T15:32:00;5.57;;;0.90;;
71769;SDS011;59605;52.122;5.420;2022-08-21T15:34:29;4.43;;;0.93;;
71769;SDS011;59605;52.122;5.420;2022-08-21T15:36:56;3.05;;;0.70;;
71769;SDS011;59605;52.122;5.420;2022-08-21T15:39:25;7.90;;;1.05;;
71769;SDS011;59605;52.122;5.420;2022-08-21T15:41:56;3.95;;;1.00;;
71769;SDS011;59605;52.122;5.420;2022-08-21T15:44:23;3.90;;;1.50;;
71769;SDS011;59605;52.122;5.420;2022-08-21T15:46:51;5.10;;;0.93;;
71769;SDS011;59605;52.122;5.420;2022-08-21T15:49:18;3.67;;;1.00;;
71769;SDS011;59605;52.122;5.420;2022-08-21T15:51:44;3.33;;;1.63;;
71769;SDS011;59605;52.122;5.420;2022-08-21T15:54:11;5.97;;;1.17;;
71769;SDS011;59605;52.122;5.420;2022-08-21T15:56:38;6.20;;;0.88;;
71769;SDS011;59605;52.122;5.420;2022-08-21T15:59:08;3.40;;;0.90;;
71769;SDS011;59605;52.122;5.420;2022-08-21T16:01:45;3.58;;;0.98;;
71769;SDS011;59605;52.122;5.420;2022-08-21T16:04:14;4.22;;;0.80;;
71769;SDS011;59605;52.122;5.420;2022-08-21T16:06:46;2.20;;;0.80;;
71769;SDS011;59605;52.122;5.420;2022-08-21T16:09:22;2.22;;;0.88;;
71769;SDS011;59605;52.122;5.420;2022-08-21T16:11:49;2.00;;;0.60;;
71769;SDS011;59605;52.122;5.420;2022-08-21T16:14:17;5.00;;;1.00;;
71769;SDS011;59605;52.122;5.420;2022-08-21T16:16:43;2.95;;;0.93;;